sensor_id;sensor_type;location;lat;lon;timestamp;P1;durP1;ratioP1;P2;durP2;ratioP2
33421;SDS011;19763;55.798;37.782;2022-08-06T00:01:51;19.40;;;15.00;;
33421;SDS011;19763;55.798;37.782;2022-08-06T00:04:17;19.40;;;14.43;;
33421;SDS011;19763;55.798;37.782;2022-08-06T00:06:43;17.42;;;14.68;;
33421;SDS011;19763;55.798;37.782;2022-08-06T00:09:09;16.98;;;15.13;;
33421;SDS011;19763;55.798;37.782;2022-08-06T00:11:37;20.83;;;15.45;;
33421;SDS011;19763;55.798;37.782;2022-08-06T00:14:03;17.75;;;14.95;;
33421;SDS011;19763;55.798;37.782;2022-08-06T00:16:29;15.57;;;14.00;;
33421;SDS011;19763;55.798;37.782;2022-08-06T00:18:55;17.90;;;14.60;;
33421;SDS011;19763;55.798;37.782;2022-08-06T00:21:21;17.92;;;14.48;;
33421;SDS011;19763;55.798;37.782;2022-08-06T00:23:46;18.13;;;14.85;;
33421;SDS011;19763;55.798;37.782;2022-08-06T00:26:12;17.98;;;15.30;;
33421;SDS011;19763;55.798;37.782;2022-08-06T00:28:38;18.13;;;14.32;;
33421;SDS011;19763;55.798;37.782;2022-08-06T00:31:04;18.55;;;14.77;;
33421;SDS011;19763;55.798;37.782;2022-08-06T00:33:30;16.92;;;15.30;;
33421;SDS011;19763;55.798;37.782;2022-08-06T00:35:56;16.02;;;14.35;;
33421;SDS011;19763;55.798;37.782;2022-08-06T00:38:22;16.75;;;15.18;;
33421;SDS011;19763;55.798;37.782;2022-08-06T00:40:48;16.25;;;14.52;;
33421;SDS011;19763;55.798;37.782;2022-08-06T00:43:14;18.17;;;15.60;;
33421;SDS011;19763;55.798;37.782;2022-08-06T00:45:40;17.35;;;15.70;;
33421;SDS011;19763;55.798;37.782;2022-08-06T00:48:06;19.75;;;15.55;;
33421;SDS011;19763;55.798;37.782;2022-08-06T00:50:32;17.67;;;15.27;;
33421;SDS011;19763;55.798;37.782;2022-08-06T00:52:58;15.68;;;14.18;;
33421;SDS011;19763;55.798;37.782;2022-08-06T00:55:25;17.98;;;15.00;;
33421;SDS011;19763;55.798;37.782;2022-08-06T00:57:51;19.98;;;15.38;;
33421;SDS011;19763;55.798;37.782;2022-08-06T01:00:16;17.52;;;14.75;;
33421;SDS011;19763;55.798;37.782;2022-08-06T01:02:42;17.83;;;14.88;;
33421;SDS011;19763;55.798;37.782;2022-08-06T01:05:08;18.48;;;15.50;;
33421;SDS011;19763;55.798;37.782;2022-08-06T01:07:33;17.15;;;15.45;;
33421;SDS011;19763;55.798;37.782;2022-08-06T01:09:59;17.70;;;15.85;;
33421;SDS011;19763;55.798;37.782;2022-08-06T01:12:28;21.55;;;15.70;;
33421;SDS011;19763;55.798;37.782;2022-08-06T01:14:54;21.33;;;16.98;;
33421;SDS011;19763;55.798;37.782;2022-08-06T01:17:42;17.38;;;15.30;;
33421;SDS011;19763;55.798;37.782;2022-08-06T01:21:13;20.75;;;15.55;;
33421;SDS011;19763;55.798;37.782;2022-08-06T01:28:41;18.88;;;16.77;;
33421;SDS011;19763;55.798;37.782;2022-08-06T01:31:19;24.02;;;18.05;;
33421;SDS011;19763;55.798;37.782;2022-08-06T01:33:59;18.27;;;16.00;;
33421;SDS011;19763;55.798;37.782;2022-08-06T01:36:48;19.35;;;16.08;;
33421;SDS011;19763;55.798;37.782;2022-08-06T01:39:20;21.27;;;15.50;;
33421;SDS011;19763;55.798;37.782;2022-08-06T01:41:49;17.75;;;15.85;;
33421;SDS011;19763;55.798;37.782;2022-08-06T01:44:19;23.83;;;17.27;;
33421;SDS011;19763;55.798;37.782;2022-08-06T01:46:48;20.77;;;17.00;;
33421;SDS011;19763;55.798;37.782;2022-08-06T01:49:18;18.98;;;17.02;;
33421;SDS011;19763;55.798;37.782;2022-08-06T01:51:48;21.20;;;15.93;;
33421;SDS011;19763;55.798;37.782;2022-08-06T01:54:16;18.73;;;16.13;;
33421;SDS011;19763;55.798;37.782;2022-08-06T01:56:45;23.08;;;17.48;;
33421;SDS011;19763;55.798;37.782;2022-08-06T01:59:15;24.15;;;17.77;;
33421;SDS011;19763;55.798;37.782;2022-08-06T02:01:44;20.88;;;15.95;;
33421;SDS011;19763;55.798;37.782;2022-08-06T02:04:14;18.15;;;15.85;;
33421;SDS011;19763;55.798;37.782;2022-08-06T02:06:43;24.17;;;18.48;;
33421;SDS011;19763;55.798;37.782;2022-08-06T02:09:13;19.77;;;16.35;;
33421;SDS011;19763;55.798;37.782;2022-08-06T02:11:42;22.25;;;19.77;;
33421;SDS011;19763;55.798;37.782;2022-08-06T02:14:10;29.65;;;18.98;;
33421;SDS011;19763;55.798;37.782;2022-08-06T02:16:38;21.83;;;19.00;;
33421;SDS011;19763;55.798;37.782;2022-08-06T02:19:06;20.63;;;18.35;;
33421;SDS011;19763;55.798;37.782;2022-08-06T02:21:34;23.00;;;18.25;;
33421;SDS011;19763;55.798;37.782;2022-08-06T02:24:02;20.05;;;17.08;;
33421;SDS011;19763;55.798;37.782;2022-08-06T02:26:31;23.55;;;18.40;;
33421;SDS011;19763;55.798;37.782;2022-08-06T02:29:02;21.05;;;18.63;;
33421;SDS011;19763;55.798;37.782;2022-08-06T02:31:31;21.23;;;17.00;;
33421;SDS011;19763;55.798;37.782;2022-08-06T02:33:57;18.48;;;16.20;;
33421;SDS011;19763;55.798;37.782;2022-08-06T02:36:34;22.48;;;17.17;;
33421;SDS011;19763;55.798;37.782;2022-08-06T02:39:09;19.83;;;17.35;;
33421;SDS011;19763;55.798;37.782;2022-08-06T02:41:45;22.95;;;19.15;;
33421;SDS011;19763;55.798;37.782;2022-08-06T02:44:20;19.83;;;17.02;;
33421;SDS011;19763;55.798;37.782;2022-08-06T02:47:02;22.77;;;18.20;;
33421;SDS011;19763;55.798;37.782;2022-08-06T02:49:32;20.45;;;16.92;;
33421;SDS011;19763;55.798;37.782;2022-08-06T02:52:03;20.25;;;17.25;;
33421;SDS011;19763;55.798;37.782;2022-08-06T02:55:19;21.30;;;16.98;;
33421;SDS011;19763;55.798;37.782;2022-08-06T02:57:30;21.50;;;17.30;;
33421;SDS011;19763;55.798;37.782;2022-08-06T03:00:04;20.17;;;18.08;;
33421;SDS011;19763;55.798;37.782;2022-08-06T03:02:33;22.00;;;17.05;;
33421;SDS011;19763;55.798;37.782;2022-08-06T03:05:03;24.38;;;19.15;;
33421;SDS011;19763;55.798;37.782;2022-08-06T03:07:31;22.45;;;19.55;;
33421;SDS011;19763;55.798;37.782;2022-08-06T03:09:59;21.65;;;17.35;;
33421;SDS011;19763;55.798;37.782;2022-08-06T03:12:29;20.73;;;18.52;;
33421;SDS011;19763;55.798;37.782;2022-08-06T03:14:56;22.27;;;18.80;;
33421;SDS011;19763;55.798;37.782;2022-08-06T03:17:29;19.70;;;17.00;;
33421;SDS011;19763;55.798;37.782;2022-08-06T03:19:58;20.30;;;18.30;;
33421;SDS011;19763;55.798;37.782;2022-08-06T03:22:29;21.45;;;18.48;;
33421;SDS011;19763;55.798;37.782;2022-08-06T03:24:56;20.27;;;18.15;;
33421;SDS011;19763;55.798;37.782;2022-08-06T03:27:23;25.08;;;19.23;;
33421;SDS011;19763;55.798;37.782;2022-08-06T03:29:50;23.08;;;19.10;;
33421;SDS011;19763;55.798;37.782;2022-08-06T03:32:17;20.80;;;16.70;;
33421;SDS011;19763;55.798;37.782;2022-08-06T03:34:43;20.55;;;17.98;;
33421;SDS011;19763;55.798;37.782;2022-08-06T03:37:10;23.88;;;18.08;;
33421;SDS011;19763;55.798;37.782;2022-08-06T03:39:37;19.90;;;17.90;;
33421;SDS011;19763;55.798;37.782;2022-08-06T03:42:06;19.83;;;17.73;;
33421;SDS011;19763;55.798;37.782;2022-08-06T03:44:32;21.00;;;16.60;;
33421;SDS011;19763;55.798;37.782;2022-08-06T03:47:00;22.98;;;18.35;;
33421;SDS011;19763;55.798;37.782;2022-08-06T03:49:33;24.95;;;18.17;;
33421;SDS011;19763;55.798;37.782;2022-08-06T03:52:15;18.95;;;16.35;;
33421;SDS011;19763;55.798;37.782;2022-08-06T03:54:45;23.08;;;16.23;;
33421;SDS011;19763;55.798;37.782;2022-08-06T03:57:17;22.35;;;16.58;;
33421;SDS011;19763;55.798;37.782;2022-08-06T03:59:45;19.35;;;17.35;;
33421;SDS011;19763;55.798;37.782;2022-08-06T04:02:14;24.08;;;17.63;;
33421;SDS011;19763;55.798;37.782;2022-08-06T04:04:41;21.23;;;16.73;;
33421;SDS011;19763;55.798;37.782;2022-08-06T04:07:08;19.73;;;16.45;;
33421;SDS011;19763;55.798;37.782;2022-08-06T04:09:34;18.60;;;16.55;;
33421;SDS011;19763;55.798;37.782;2022-08-06T04:12:01;23.75;;;17.48;;
33421;SDS011;19763;55.798;37.782;2022-08-06T04:14:29;21.85;;;18.55;;
33421;SDS011;19763;55.798;37.782;2022-08-06T04:16:56;22.65;;;19.88;;
33421;SDS011;19763;55.798;37.782;2022-08-06T04:19:23;22.33;;;18.30;;
33421;SDS011;19763;55.798;37.782;2022-08-06T04:21:49;21.25;;;18.83;;
33421;SDS011;19763;55.798;37.782;2022-08-06T04:24:15;22.27;;;17.55;;
33421;SDS011;19763;55.798;37.782;2022-08-06T04:26:42;21.20;;;18.70;;
33421;SDS011;19763;55.798;37.782;2022-08-06T04:29:11;17.65;;;15.77;;
33421;SDS011;19763;55.798;37.782;2022-08-06T04:31:42;20.63;;;18.53;;
33421;SDS011;19763;55.798;37.782;2022-08-06T04:34:09;20.92;;;17.55;;
33421;SDS011;19763;55.798;37.782;2022-08-06T04:36:37;21.08;;;17.50;;
33421;SDS011;19763;55.798;37.782;2022-08-06T04:39:03;21.33;;;17.33;;
33421;SDS011;19763;55.798;37.782;2022-08-06T04:41:29;19.80;;;17.75;;
33421;SDS011;19763;55.798;37.782;2022-08-06T04:43:56;18.27;;;16.48;;
33421;SDS011;19763;55.798;37.782;2022-08-06T04:46:22;18.58;;;16.75;;
33421;SDS011;19763;55.798;37.782;2022-08-06T04:48:49;21.63;;;16.90;;
33421;SDS011;19763;55.798;37.782;2022-08-06T04:51:15;19.30;;;16.33;;
33421;SDS011;19763;55.798;37.782;2022-08-06T04:53:40;19.98;;;17.30;;
33421;SDS011;19763;55.798;37.782;2022-08-06T04:56:07;20.23;;;16.77;;
33421;SDS011;19763;55.798;37.782;2022-08-06T04:58:34;19.30;;;16.98;;
33421;SDS011;19763;55.798;37.782;2022-08-06T05:01:00;20.98;;;16.13;;
33421;SDS011;19763;55.798;37.782;2022-08-06T05:03:27;16.70;;;14.95;;
33421;SDS011;19763;55.798;37.782;2022-08-06T05:08:38;16.38;;;14.68;;
33421;SDS011;19763;55.798;37.782;2022-08-06T05:11:12;16.13;;;13.60;;
33421;SDS011;19763;55.798;37.782;2022-08-06T05:13:44;15.63;;;14.02;;
33421;SDS011;19763;55.798;37.782;2022-08-06T05:16:12;15.80;;;13.68;;
33421;SDS011;19763;55.798;37.782;2022-08-06T05:18:46;16.70;;;13.68;;
33421;SDS011;19763;55.798;37.782;2022-08-06T05:21:17;18.30;;;14.48;;
33421;SDS011;19763;55.798;37.782;2022-08-06T05:23:49;21.02;;;14.07;;
33421;SDS011;19763;55.798;37.782;2022-08-06T05:26:18;14.88;;;12.73;;
33421;SDS011;19763;55.798;37.782;2022-08-06T05:28:45;16.55;;;12.95;;
33421;SDS011;19763;55.798;37.782;2022-08-06T05:31:10;17.48;;;13.18;;
33421;SDS011;19763;55.798;37.782;2022-08-06T05:33:36;24.65;;;13.52;;
33421;SDS011;19763;55.798;37.782;2022-08-06T05:36:05;15.60;;;12.50;;
33421;SDS011;19763;55.798;37.782;2022-08-06T05:38:33;17.02;;;12.27;;
33421;SDS011;19763;55.798;37.782;2022-08-06T05:41:01;18.17;;;13.75;;
33421;SDS011;19763;55.798;37.782;2022-08-06T05:43:27;16.52;;;14.50;;
33421;SDS011;19763;55.798;37.782;2022-08-06T05:45:56;14.43;;;12.93;;
33421;SDS011;19763;55.798;37.782;2022-08-06T05:48:25;14.43;;;12.98;;
33421;SDS011;19763;55.798;37.782;2022-08-06T05:50:57;16.98;;;14.23;;
33421;SDS011;19763;55.798;37.782;2022-08-06T05:53:35;19.85;;;14.43;;
33421;SDS011;19763;55.798;37.782;2022-08-06T05:56:35;16.13;;;13.50;;
33421;SDS011;19763;55.798;37.782;2022-08-06T05:59:01;18.55;;;14.10;;
33421;SDS011;19763;55.798;37.782;2022-08-06T06:01:32;15.38;;;12.80;;
33421;SDS011;19763;55.798;37.782;2022-08-06T06:03:59;18.50;;;12.85;;
33421;SDS011;19763;55.798;37.782;2022-08-06T06:06:25;13.90;;;12.43;;
33421;SDS011;19763;55.798;37.782;2022-08-06T06:08:52;16.67;;;12.43;;
33421;SDS011;19763;55.798;37.782;2022-08-06T06:11:18;16.38;;;12.95;;
33421;SDS011;19763;55.798;37.782;2022-08-06T06:13:44;14.25;;;12.73;;
33421;SDS011;19763;55.798;37.782;2022-08-06T06:16:17;17.42;;;12.77;;
33421;SDS011;19763;55.798;37.782;2022-08-06T06:24:48;13.73;;;12.02;;
33421;SDS011;19763;55.798;37.782;2022-08-06T06:30:03;12.18;;;10.80;;
33421;SDS011;19763;55.798;37.782;2022-08-06T06:35:23;12.50;;;10.27;;
33421;SDS011;19763;55.798;37.782;2022-08-06T06:40:53;14.30;;;11.23;;
33421;SDS011;19763;55.798;37.782;2022-08-06T06:43:36;14.20;;;11.65;;
33421;SDS011;19763;55.798;37.782;2022-08-06T06:49:01;14.70;;;11.38;;
33421;SDS011;19763;55.798;37.782;2022-08-06T06:51:43;17.25;;;11.45;;
33421;SDS011;19763;55.798;37.782;2022-08-06T06:54:24;19.35;;;11.32;;
33421;SDS011;19763;55.798;37.782;2022-08-06T06:56:54;16.60;;;10.95;;
33421;SDS011;19763;55.798;37.782;2022-08-06T06:59:27;13.93;;;11.90;;
33421;SDS011;19763;55.798;37.782;2022-08-06T07:01:57;13.85;;;10.35;;
33421;SDS011;19763;55.798;37.782;2022-08-06T07:04:25;18.05;;;10.88;;
33421;SDS011;19763;55.798;37.782;2022-08-06T07:06:54;17.35;;;10.65;;
33421;SDS011;19763;55.798;37.782;2022-08-06T07:09:23;13.60;;;10.98;;
33421;SDS011;19763;55.798;37.782;2022-08-06T07:11:51;11.50;;;10.32;;
33421;SDS011;19763;55.798;37.782;2022-08-06T07:14:21;12.57;;;10.52;;
33421;SDS011;19763;55.798;37.782;2022-08-06T07:16:50;12.32;;;10.30;;
33421;SDS011;19763;55.798;37.782;2022-08-06T07:19:20;13.35;;;9.80;;
33421;SDS011;19763;55.798;37.782;2022-08-06T07:21:49;13.73;;;9.57;;
33421;SDS011;19763;55.798;37.782;2022-08-06T07:24:15;11.23;;;9.88;;
33421;SDS011;19763;55.798;37.782;2022-08-06T07:26:42;12.88;;;9.70;;
33421;SDS011;19763;55.798;37.782;2022-08-06T07:29:10;11.70;;;9.65;;
33421;SDS011;19763;55.798;37.782;2022-08-06T07:31:37;11.70;;;9.52;;
33421;SDS011;19763;55.798;37.782;2022-08-06T07:34:05;15.63;;;9.20;;
33421;SDS011;19763;55.798;37.782;2022-08-06T07:36:32;13.02;;;8.57;;
33421;SDS011;19763;55.798;37.782;2022-08-06T07:39:03;11.18;;;8.57;;
33421;SDS011;19763;55.798;37.782;2022-08-06T07:41:33;10.90;;;8.60;;
33421;SDS011;19763;55.798;37.782;2022-08-06T07:44:01;10.25;;;8.35;;
33421;SDS011;19763;55.798;37.782;2022-08-06T07:46:29;12.48;;;8.50;;
33421;SDS011;19763;55.798;37.782;2022-08-06T07:49:01;13.40;;;8.95;;
33421;SDS011;19763;55.798;37.782;2022-08-06T07:51:29;8.85;;;7.95;;
33421;SDS011;19763;55.798;37.782;2022-08-06T07:53:59;10.05;;;8.23;;
33421;SDS011;19763;55.798;37.782;2022-08-06T07:56:27;9.95;;;8.93;;
33421;SDS011;19763;55.798;37.782;2022-08-06T07:58:53;8.85;;;8.05;;
33421;SDS011;19763;55.798;37.782;2022-08-06T08:01:20;9.85;;;8.02;;
33421;SDS011;19763;55.798;37.782;2022-08-06T08:03:47;13.10;;;8.30;;
33421;SDS011;19763;55.798;37.782;2022-08-06T08:06:33;11.68;;;8.20;;
33421;SDS011;19763;55.798;37.782;2022-08-06T08:09:10;13.35;;;8.63;;
33421;SDS011;19763;55.798;37.782;2022-08-06T08:11:41;8.82;;;7.88;;
33421;SDS011;19763;55.798;37.782;2022-08-06T08:14:10;10.10;;;7.22;;
33421;SDS011;19763;55.798;37.782;2022-08-06T08:16:37;12.18;;;8.10;;
33421;SDS011;19763;55.798;37.782;2022-08-06T08:22:16;10.73;;;7.70;;
33421;SDS011;19763;55.798;37.782;2022-08-06T08:24:44;9.02;;;7.25;;
33421;SDS011;19763;55.798;37.782;2022-08-06T08:27:11;8.45;;;7.57;;
33421;SDS011;19763;55.798;37.782;2022-08-06T08:29:37;10.20;;;7.72;;
33421;SDS011;19763;55.798;37.782;2022-08-06T08:32:05;11.52;;;7.80;;
33421;SDS011;19763;55.798;37.782;2022-08-06T08:34:32;10.75;;;8.27;;
33421;SDS011;19763;55.798;37.782;2022-08-06T08:36:58;10.02;;;8.13;;
33421;SDS011;19763;55.798;37.782;2022-08-06T08:39:24;10.77;;;8.27;;
33421;SDS011;19763;55.798;37.782;2022-08-06T08:41:55;13.88;;;7.57;;
33421;SDS011;19763;55.798;37.782;2022-08-06T08:44:32;12.52;;;8.48;;
33421;SDS011;19763;55.798;37.782;2022-08-06T08:46:58;11.18;;;8.05;;
33421;SDS011;19763;55.798;37.782;2022-08-06T08:52:17;11.32;;;7.72;;
33421;SDS011;19763;55.798;37.782;2022-08-06T08:54:48;10.15;;;7.50;;
33421;SDS011;19763;55.798;37.782;2022-08-06T08:57:16;13.30;;;7.70;;
33421;SDS011;19763;55.798;37.782;2022-08-06T08:59:42;8.27;;;7.47;;
33421;SDS011;19763;55.798;37.782;2022-08-06T09:02:11;15.07;;;7.45;;
33421;SDS011;19763;55.798;37.782;2022-08-06T09:04:38;13.32;;;7.50;;
33421;SDS011;19763;55.798;37.782;2022-08-06T09:07:06;8.35;;;7.25;;
33421;SDS011;19763;55.798;37.782;2022-08-06T09:09:33;12.18;;;9.50;;
33421;SDS011;19763;55.798;37.782;2022-08-06T09:12:00;8.85;;;7.45;;
33421;SDS011;19763;55.798;37.782;2022-08-06T09:14:26;10.07;;;8.10;;
33421;SDS011;19763;55.798;37.782;2022-08-06T09:16:52;8.68;;;7.82;;
33421;SDS011;19763;55.798;37.782;2022-08-06T09:19:18;9.50;;;7.68;;
33421;SDS011;19763;55.798;37.782;2022-08-06T09:21:44;9.55;;;7.18;;
33421;SDS011;19763;55.798;37.782;2022-08-06T09:24:09;9.20;;;7.75;;
33421;SDS011;19763;55.798;37.782;2022-08-06T09:26:35;7.88;;;7.10;;
33421;SDS011;19763;55.798;37.782;2022-08-06T09:29:01;11.85;;;7.50;;
33421;SDS011;19763;55.798;37.782;2022-08-06T09:31:39;8.10;;;7.30;;
33421;SDS011;19763;55.798;37.782;2022-08-06T09:34:06;9.57;;;7.20;;
33421;SDS011;19763;55.798;37.782;2022-08-06T09:36:41;8.93;;;6.82;;
33421;SDS011;19763;55.798;37.782;2022-08-06T09:39:08;10.55;;;7.65;;
33421;SDS011;19763;55.798;37.782;2022-08-06T09:41:39;8.60;;;7.65;;
33421;SDS011;19763;55.798;37.782;2022-08-06T09:44:11;12.43;;;8.07;;
33421;SDS011;19763;55.798;37.782;2022-08-06T09:49:07;8.27;;;7.50;;
33421;SDS011;19763;55.798;37.782;2022-08-06T09:51:34;15.65;;;11.57;;
33421;SDS011;19763;55.798;37.782;2022-08-06T09:54:01;11.85;;;8.30;;
33421;SDS011;19763;55.798;37.782;2022-08-06T09:56:28;10.30;;;7.28;;
33421;SDS011;19763;55.798;37.782;2022-08-06T09:59:01;10.25;;;7.78;;
33421;SDS011;19763;55.798;37.782;2022-08-06T10:01:43;8.70;;;7.10;;
33421;SDS011;19763;55.798;37.782;2022-08-06T10:04:13;11.60;;;7.20;;
33421;SDS011;19763;55.798;37.782;2022-08-06T10:06:52;10.32;;;7.28;;
33421;SDS011;19763;55.798;37.782;2022-08-06T10:09:19;12.07;;;7.43;;
33421;SDS011;19763;55.798;37.782;2022-08-06T10:11:45;9.98;;;7.63;;
33421;SDS011;19763;55.798;37.782;2022-08-06T10:14:24;9.73;;;7.13;;
33421;SDS011;19763;55.798;37.782;2022-08-06T10:19:38;11.52;;;6.95;;
33421;SDS011;19763;55.798;37.782;2022-08-06T10:22:15;10.80;;;7.78;;
33421;SDS011;19763;55.798;37.782;2022-08-06T10:24:43;7.88;;;7.10;;
33421;SDS011;19763;55.798;37.782;2022-08-06T10:27:13;11.20;;;7.75;;
33421;SDS011;19763;55.798;37.782;2022-08-06T10:29:47;8.68;;;7.40;;
33421;SDS011;19763;55.798;37.782;2022-08-06T10:32:16;11.50;;;7.63;;
33421;SDS011;19763;55.798;37.782;2022-08-06T10:34:54;10.07;;;7.35;;
33421;SDS011;19763;55.798;37.782;2022-08-06T10:37:22;10.68;;;7.82;;
33421;SDS011;19763;55.798;37.782;2022-08-06T10:39:51;10.68;;;7.72;;
33421;SDS011;19763;55.798;37.782;2022-08-06T10:42:21;8.05;;;7.22;;
33421;SDS011;19763;55.798;37.782;2022-08-06T10:44:49;10.32;;;7.53;;
33421;SDS011;19763;55.798;37.782;2022-08-06T10:47:15;13.20;;;8.05;;
33421;SDS011;19763;55.798;37.782;2022-08-06T10:49:42;8.35;;;7.55;;
33421;SDS011;19763;55.798;37.782;2022-08-06T10:52:09;8.82;;;7.93;;
33421;SDS011;19763;55.798;37.782;2022-08-06T10:54:36;12.30;;;8.00;;
33421;SDS011;19763;55.798;37.782;2022-08-06T10:57:02;10.48;;;7.88;;
33421;SDS011;19763;55.798;37.782;2022-08-06T10:59:28;8.88;;;7.63;;
33421;SDS011;19763;55.798;37.782;2022-08-06T11:02:12;8.68;;;7.70;;
33421;SDS011;19763;55.798;37.782;2022-08-06T11:05:07;8.10;;;7.30;;
33421;SDS011;19763;55.798;37.782;2022-08-06T11:07:42;13.35;;;7.65;;
33421;SDS011;19763;55.798;37.782;2022-08-06T11:13:15;10.15;;;7.57;;
33421;SDS011;19763;55.798;37.782;2022-08-06T11:15:46;8.23;;;7.05;;
33421;SDS011;19763;55.798;37.782;2022-08-06T11:18:13;10.57;;;7.53;;
33421;SDS011;19763;55.798;37.782;2022-08-06T11:20:43;10.02;;;7.35;;
33421;SDS011;19763;55.798;37.782;2022-08-06T11:28:07;9.15;;;7.38;;
33421;SDS011;19763;55.798;37.782;2022-08-06T11:30:37;10.73;;;7.60;;
33421;SDS011;19763;55.798;37.782;2022-08-06T11:33:12;9.25;;;7.68;;
33421;SDS011;19763;55.798;37.782;2022-08-06T11:35:46;10.63;;;8.73;;
33421;SDS011;19763;55.798;37.782;2022-08-06T11:38:16;11.88;;;7.72;;
33421;SDS011;19763;55.798;37.782;2022-08-06T11:41:09;11.02;;;7.82;;
33421;SDS011;19763;55.798;37.782;2022-08-06T11:59:35;7.95;;;7.25;;
33421;SDS011;19763;55.798;37.782;2022-08-06T12:02:05;8.25;;;7.50;;
33421;SDS011;19763;55.798;37.782;2022-08-06T12:09:46;8.85;;;6.97;;
33421;SDS011;19763;55.798;37.782;2022-08-06T12:14:50;11.55;;;7.38;;
33421;SDS011;19763;55.798;37.782;2022-08-06T12:17:20;10.25;;;7.75;;
33421;SDS011;19763;55.798;37.782;2022-08-06T12:19:48;11.80;;;7.87;;
33421;SDS011;19763;55.798;37.782;2022-08-06T12:22:16;7.90;;;6.82;;
33421;SDS011;19763;55.798;37.782;2022-08-06T12:24:44;9.10;;;7.63;;
33421;SDS011;19763;55.798;37.782;2022-08-06T12:27:11;11.68;;;7.65;;
33421;SDS011;19763;55.798;37.782;2022-08-06T12:29:37;10.85;;;7.95;;
33421;SDS011;19763;55.798;37.782;2022-08-06T12:32:24;8.48;;;7.57;;
33421;SDS011;19763;55.798;37.782;2022-08-06T12:34:58;9.00;;;7.47;;
33421;SDS011;19763;55.798;37.782;2022-08-06T12:37:35;9.55;;;7.25;;
33421;SDS011;19763;55.798;37.782;2022-08-06T12:45:34;11.30;;;7.68;;
33421;SDS011;19763;55.798;37.782;2022-08-06T12:50:34;8.75;;;7.82;;
33421;SDS011;19763;55.798;37.782;2022-08-06T12:53:14;9.48;;;7.45;;
33421;SDS011;19763;55.798;37.782;2022-08-06T12:58:12;9.02;;;7.40;;
33421;SDS011;19763;55.798;37.782;2022-08-06T13:00:40;8.23;;;7.18;;
33421;SDS011;19763;55.798;37.782;2022-08-06T13:03:07;10.57;;;7.10;;
33421;SDS011;19763;55.798;37.782;2022-08-06T13:05:34;9.05;;;8.02;;
33421;SDS011;19763;55.798;37.782;2022-08-06T13:08:00;9.30;;;7.20;;
33421;SDS011;19763;55.798;37.782;2022-08-06T13:10:26;13.10;;;7.88;;
33421;SDS011;19763;55.798;37.782;2022-08-06T13:12:56;11.07;;;7.25;;
33421;SDS011;19763;55.798;37.782;2022-08-06T13:15:24;9.45;;;7.18;;
33421;SDS011;19763;55.798;37.782;2022-08-06T13:23:09;10.45;;;7.47;;
33421;SDS011;19763;55.798;37.782;2022-08-06T13:25:42;10.35;;;7.30;;
33421;SDS011;19763;55.798;37.782;2022-08-06T13:28:10;7.90;;;6.47;;
33421;SDS011;19763;55.798;37.782;2022-08-06T13:30:39;8.73;;;7.55;;
33421;SDS011;19763;55.798;37.782;2022-08-06T13:33:14;9.85;;;7.38;;
33421;SDS011;19763;55.798;37.782;2022-08-06T13:35:44;9.65;;;7.35;;
33421;SDS011;19763;55.798;37.782;2022-08-06T13:38:14;7.85;;;7.10;;
33421;SDS011;19763;55.798;37.782;2022-08-06T13:40:52;11.85;;;8.35;;
33421;SDS011;19763;55.798;37.782;2022-08-06T13:43:19;10.98;;;7.47;;
33421;SDS011;19763;55.798;37.782;2022-08-06T13:45:45;10.20;;;8.40;;
33421;SDS011;19763;55.798;37.782;2022-08-06T13:48:11;10.82;;;7.60;;
33421;SDS011;19763;55.798;37.782;2022-08-06T13:50:44;10.32;;;7.78;;
33421;SDS011;19763;55.798;37.782;2022-08-06T13:53:11;12.80;;;6.80;;
33421;SDS011;19763;55.798;37.782;2022-08-06T13:55:37;10.95;;;7.50;;
33421;SDS011;19763;55.798;37.782;2022-08-06T13:58:07;7.27;;;6.60;;
33421;SDS011;19763;55.798;37.782;2022-08-06T14:00:35;10.43;;;6.95;;
33421;SDS011;19763;55.798;37.782;2022-08-06T14:03:02;12.18;;;7.15;;
33421;SDS011;19763;55.798;37.782;2022-08-06T14:05:28;10.13;;;7.05;;
33421;SDS011;19763;55.798;37.782;2022-08-06T14:07:54;11.10;;;7.30;;
33421;SDS011;19763;55.798;37.782;2022-08-06T14:10:19;7.47;;;6.78;;
33421;SDS011;19763;55.798;37.782;2022-08-06T14:12:45;9.93;;;6.80;;
33421;SDS011;19763;55.798;37.782;2022-08-06T14:15:31;7.55;;;6.75;;
33421;SDS011;19763;55.798;37.782;2022-08-06T14:17:57;10.45;;;7.20;;
33421;SDS011;19763;55.798;37.782;2022-08-06T14:20:23;10.23;;;7.13;;
33421;SDS011;19763;55.798;37.782;2022-08-06T14:22:50;8.68;;;7.78;;
33421;SDS011;19763;55.798;37.782;2022-08-06T14:25:16;8.55;;;6.88;;
33421;SDS011;19763;55.798;37.782;2022-08-06T14:27:41;9.90;;;7.28;;
33421;SDS011;19763;55.798;37.782;2022-08-06T14:30:07;9.35;;;6.57;;
33421;SDS011;19763;55.798;37.782;2022-08-06T14:32:33;8.18;;;6.80;;
33421;SDS011;19763;55.798;37.782;2022-08-06T14:34:59;10.77;;;6.43;;
33421;SDS011;19763;55.798;37.782;2022-08-06T14:37:24;8.32;;;6.53;;
33421;SDS011;19763;55.798;37.782;2022-08-06T14:39:50;10.23;;;6.93;;
33421;SDS011;19763;55.798;37.782;2022-08-06T14:42:16;8.85;;;7.00;;
33421;SDS011;19763;55.798;37.782;2022-08-06T14:45:00;14.90;;;6.68;;
33421;SDS011;19763;55.798;37.782;2022-08-06T14:47:31;9.82;;;7.13;;
33421;SDS011;19763;55.798;37.782;2022-08-06T14:49:57;15.00;;;8.02;;
33421;SDS011;19763;55.798;37.782;2022-08-06T14:52:23;7.85;;;7.05;;
33421;SDS011;19763;55.798;37.782;2022-08-06T14:54:49;14.27;;;7.90;;
33421;SDS011;19763;55.798;37.782;2022-08-06T14:57:15;11.20;;;7.22;;
33421;SDS011;19763;55.798;37.782;2022-08-06T14:59:41;10.57;;;7.15;;
33421;SDS011;19763;55.798;37.782;2022-08-06T15:02:07;14.23;;;6.68;;
33421;SDS011;19763;55.798;37.782;2022-08-06T15:04:33;11.75;;;7.25;;
33421;SDS011;19763;55.798;37.782;2022-08-06T15:06:58;12.02;;;7.78;;
33421;SDS011;19763;55.798;37.782;2022-08-06T15:09:24;12.48;;;8.25;;
33421;SDS011;19763;55.798;37.782;2022-08-06T15:11:50;14.10;;;8.77;;
33421;SDS011;19763;55.798;37.782;2022-08-06T15:14:16;9.30;;;7.80;;
33421;SDS011;19763;55.798;37.782;2022-08-06T15:16:42;11.48;;;8.55;;
33421;SDS011;19763;55.798;37.782;2022-08-06T15:19:07;8.77;;;7.97;;
33421;SDS011;19763;55.798;37.782;2022-08-06T15:21:33;9.02;;;8.15;;
33421;SDS011;19763;55.798;37.782;2022-08-06T15:23:58;11.95;;;8.82;;
33421;SDS011;19763;55.798;37.782;2022-08-06T15:26:25;11.77;;;8.98;;
33421;SDS011;19763;55.798;37.782;2022-08-06T15:28:52;14.20;;;8.50;;
33421;SDS011;19763;55.798;37.782;2022-08-06T15:31:18;11.55;;;8.35;;
33421;SDS011;19763;55.798;37.782;2022-08-06T15:33:44;12.75;;;8.40;;
33421;SDS011;19763;55.798;37.782;2022-08-06T15:36:10;12.73;;;8.93;;
33421;SDS011;19763;55.798;37.782;2022-08-06T15:38:36;14.45;;;8.93;;
33421;SDS011;19763;55.798;37.782;2022-08-06T15:41:05;12.10;;;8.82;;
33421;SDS011;19763;55.798;37.782;2022-08-06T15:43:32;11.13;;;9.98;;
33421;SDS011;19763;55.798;37.782;2022-08-06T15:45:58;11.20;;;8.85;;
33421;SDS011;19763;55.798;37.782;2022-08-06T15:48:27;13.52;;;9.13;;
33421;SDS011;19763;55.798;37.782;2022-08-06T15:50:54;9.75;;;8.40;;
33421;SDS011;19763;55.798;37.782;2022-08-06T15:53:21;12.05;;;8.80;;
33421;SDS011;19763;55.798;37.782;2022-08-06T15:55:47;12.80;;;9.10;;